Baltrum Airport

METAR ETNT TAF ETMN
2 °C
°C
-
°C
14m
Leeftijd
19:33:48
LT
18:33
UTC
0 ft

1.000

2.000

3.000

4.000

5.000

UNKN
<?= Yii::t('app', 'Wind direction') ?> <?= Yii::t('app', 'of'); ?>
050°
08:22
Zonsopgang
75%
Luchtvochtigheid
Windschering
Gesloten/sneeuw
Baanzicht
Baanconditie
Verticaal zicht
Min. zicht
CAVOK
Trend
Correctie
Speciaal rapport
1029 hPa
QNH
METAR ETNT 271820Z AUTO 05004KT //// // ////// 02/M02 Q1029 ///
Onbewolkt
3 kt
3 kt
19:00
MVFR
8 kt
20:00
MVFR
8 kt
21:00
MVFR
8 kt
Zicht
Geen
Plafond
4 kt
Wind
metar-taf.com/EDWZ

Metar-Taf.com

Visuele decoder

Wij en derden volgen je internetgedrag op onze website met cookies. Als je doorgaat, gaan we ervan uit dat je akkoord gaat met onze cookiebeleid.